Terminal Aerodrome Forecast
Issued by NWS

Current Version | Previous Version | Text Only | Print | Product List | Glossary On
Versions: 1 2 3 4 5 6 7 8 9 10 11 12 13 14 15 16 17 18 19 20 21 22
000
FTUS41 KOKX 022300
TAFSWF
TAF
KSWF 022330Z 0300/0406 31010G17KT P6SM SKC
     FM030100 30007KT P6SM SKC
     FM030500 VRB03KT P6SM SCT250
     FM031500 VRB04KT P6SM FEW015 SCT150
     FM031800 16006KT P6SM SCT020 BKN120
     FM032200 16008KT 6SM -SN BKN020 OVC060
     FM040100 18010KT 2SM -SNPL OVC009
     FM040300 19011KT 1SM -FZRAPL OVC005
      AMD NOT SKED=

USA.gov is the U.S. government's official web portal to all federal, state and local government web resources and services.